createdAt,value
2023-01-19T00:00:04.184Z,998.60
2023-01-19T00:01:04.065Z,998.58
2023-01-19T00:02:04.057Z,998.59
2023-01-19T00:03:04.107Z,998.60
2023-01-19T00:04:04.040Z,998.55
2023-01-19T00:05:04.023Z,998.59
2023-01-19T00:06:04.051Z,998.59
2023-01-19T00:07:03.996Z,998.60
2023-01-19T00:08:03.994Z,998.60
2023-01-19T00:09:03.989Z,998.59
2023-01-19T00:10:03.972Z,998.62
2023-01-19T00:11:03.972Z,998.63
2023-01-19T00:12:03.946Z,998.61
2023-01-19T00:13:03.929Z,998.60
2023-01-19T00:14:03.919Z,998.61
2023-01-19T00:15:03.914Z,998.71
2023-01-19T00:16:03.929Z,998.66
2023-01-19T00:17:03.883Z,998.69
2023-01-19T00:18:03.893Z,998.76
2023-01-19T00:19:03.882Z,998.71
2023-01-19T00:20:03.935Z,998.72
2023-01-19T00:21:03.862Z,998.76
2023-01-19T00:22:03.828Z,998.86
2023-01-19T00:23:03.815Z,998.84
2023-01-19T00:24:03.810Z,998.83
2023-01-19T00:25:03.793Z,998.89
2023-01-19T00:26:03.782Z,998.90
2023-01-19T00:27:03.779Z,998.88
2023-01-19T00:28:03.780Z,998.92
2023-01-19T00:29:03.746Z,998.93
2023-01-19T00:30:03.740Z,998.96
2023-01-19T00:31:03.752Z,998.96
2023-01-19T00:32:03.738Z,998.96
2023-01-19T00:33:04.206Z,998.99
2023-01-19T00:34:03.701Z,998.93
2023-01-19T00:35:03.701Z,998.96
2023-01-19T00:36:03.672Z,998.97
2023-01-19T00:37:03.660Z,998.99
2023-01-19T00:38:03.646Z,998.97
2023-01-19T00:39:03.664Z,998.94
2023-01-19T00:40:03.627Z,998.98
2023-01-19T00:41:03.615Z,998.98
2023-01-19T00:42:03.600Z,999.03
2023-01-19T00:43:03.753Z,998.98
2023-01-19T00:44:03.575Z,999.01
2023-01-19T00:45:03.573Z,999.04
2023-01-19T00:46:03.628Z,999.03
2023-01-19T00:47:03.560Z,999.07
2023-01-19T00:48:03.542Z,999.09
2023-01-19T00:49:03.520Z,999.08
2023-01-19T00:50:03.506Z,999.07
2023-01-19T00:51:03.524Z,999.09
2023-01-19T00:52:03.488Z,999.12
2023-01-19T00:53:03.724Z,999.13
2023-01-19T00:54:03.463Z,999.15
2023-01-19T00:55:03.453Z,999.17
2023-01-19T00:56:03.440Z,999.16
2023-01-19T00:57:03.454Z,999.19
2023-01-19T00:58:03.426Z,999.23
2023-01-19T00:59:03.405Z,999.23
2023-01-19T01:00:03.403Z,999.25
2023-01-19T01:01:03.901Z,999.26
2023-01-19T01:02:03.652Z,999.25
2023-01-19T01:03:03.927Z,999.30
2023-01-19T01:04:03.354Z,999.30
2023-01-19T01:05:03.341Z,999.29
2023-01-19T01:06:03.331Z,999.32
2023-01-19T01:07:03.336Z,999.28
2023-01-19T01:08:03.303Z,999.28
2023-01-19T01:09:03.320Z,999.29
2023-01-19T01:10:03.282Z,999.31
2023-01-19T01:11:03.269Z,999.30
2023-01-19T01:12:03.258Z,999.29
2023-01-19T01:13:20.426Z,999.28
2023-01-19T01:14:04.253Z,999.25
2023-01-19T01:15:03.267Z,999.22
2023-01-19T01:16:03.212Z,999.26
2023-01-19T01:17:03.199Z,999.25
2023-01-19T01:18:03.204Z,999.25
2023-01-19T01:19:03.179Z,999.27
2023-01-19T01:20:03.172Z,999.28
2023-01-19T01:21:03.162Z,999.28
2023-01-19T01:22:03.147Z,999.27
2023-01-19T01:23:03.773Z,999.29
2023-01-19T01:24:03.121Z,999.28
2023-01-19T01:25:03.115Z,999.30
2023-01-19T01:26:03.106Z,999.32
2023-01-19T01:27:03.088Z,999.33
2023-01-19T01:28:03.076Z,999.28
2023-01-19T01:29:03.066Z,999.29
2023-01-19T01:30:03.053Z,999.26
2023-01-19T01:31:03.042Z,999.27
2023-01-19T01:32:03.048Z,999.24
2023-01-19T01:33:03.302Z,999.29
2023-01-19T01:34:03.006Z,999.28
2023-01-19T01:35:02.997Z,999.27
2023-01-19T01:36:02.982Z,999.25
2023-01-19T01:37:02.988Z,999.24
2023-01-19T01:38:02.978Z,999.27
2023-01-19T01:39:02.977Z,999.26
2023-01-19T01:40:02.937Z,999.24
2023-01-19T01:41:02.928Z,999.29
2023-01-19T01:42:02.915Z,999.29
2023-01-19T01:43:03.312Z,999.30
2023-01-19T01:44:02.938Z,999.27
2023-01-19T01:45:02.883Z,999.29
2023-01-19T01:46:02.927Z,999.28
2023-01-19T01:47:02.858Z,999.25
2023-01-19T01:48:02.857Z,999.33
2023-01-19T01:49:02.844Z,999.27
2023-01-19T01:50:02.840Z,999.25
2023-01-19T01:51:02.815Z,999.26
2023-01-19T01:52:02.800Z,999.28
2023-01-19T01:53:06.819Z,999.27
2023-01-19T01:54:03.777Z,999.27
2023-01-19T01:55:02.790Z,999.28
2023-01-19T01:56:02.763Z,999.30
2023-01-19T01:57:02.753Z,999.32
2023-01-19T01:58:02.752Z,999.37
2023-01-19T01:59:02.722Z,999.35
2023-01-19T02:00:02.711Z,999.29
2023-01-19T02:01:02.854Z,999.27
2023-01-19T02:02:02.836Z,999.31
2023-01-19T02:03:03.182Z,999.33
2023-01-19T02:04:02.662Z,999.32
2023-01-19T02:05:02.651Z,999.31
2023-01-19T02:06:02.640Z,999.31
2023-01-19T02:07:02.631Z,999.34
2023-01-19T02:08:02.641Z,999.39
2023-01-19T02:09:02.625Z,999.31
2023-01-19T02:10:02.594Z,999.35
2023-01-19T02:11:02.615Z,999.33
2023-01-19T02:12:02.572Z,999.37
2023-01-19T02:13:03.003Z,999.34
2023-01-19T02:14:02.556Z,999.38
2023-01-19T02:15:02.541Z,999.41
2023-01-19T02:16:02.529Z,999.41
2023-01-19T02:17:02.515Z,999.37
2023-01-19T02:18:02.503Z,999.37
2023-01-19T02:19:02.499Z,999.37
2023-01-19T02:20:02.541Z,999.35
2023-01-19T02:21:02.471Z,999.35
2023-01-19T02:22:02.458Z,999.36
2023-01-19T02:23:02.964Z,999.34
2023-01-19T02:24:02.435Z,999.31
2023-01-19T02:25:02.432Z,999.32
2023-01-19T02:26:02.431Z,999.31
2023-01-19T02:27:02.421Z,999.29
2023-01-19T02:28:02.408Z,999.31
2023-01-19T02:29:02.391Z,999.30
2023-01-19T02:30:02.371Z,999.34
2023-01-19T02:31:02.449Z,999.35
2023-01-19T02:32:02.379Z,999.34
2023-01-19T02:33:02.772Z,999.36
2023-01-19T02:34:02.323Z,999.34
2023-01-19T02:35:02.342Z,999.36
2023-01-19T02:36:02.305Z,999.33
2023-01-19T02:37:02.294Z,999.35
2023-01-19T02:38:02.286Z,999.30
2023-01-19T02:39:02.264Z,999.28
2023-01-19T02:40:02.280Z,999.26
2023-01-19T02:41:02.262Z,999.26
2023-01-19T02:42:02.232Z,999.24
2023-01-19T02:43:02.781Z,999.24
2023-01-19T02:44:02.232Z,999.26
2023-01-19T02:45:02.196Z,999.29
2023-01-19T02:46:02.254Z,999.26
2023-01-19T02:47:02.173Z,999.32
2023-01-19T02:48:02.162Z,999.29
2023-01-19T02:49:02.152Z,999.26
2023-01-19T02:50:02.146Z,999.26
2023-01-19T02:51:02.126Z,999.24
2023-01-19T02:52:02.123Z,999.22
2023-01-19T02:53:02.452Z,999.21
2023-01-19T02:54:02.097Z,999.23
2023-01-19T02:55:02.086Z,999.25
2023-01-19T02:56:02.099Z,999.24
2023-01-19T02:57:02.060Z,999.27
2023-01-19T02:58:02.048Z,999.28
2023-01-19T02:59:02.124Z,999.26
2023-01-19T03:00:02.028Z,999.28
2023-01-19T03:01:02.136Z,999.31
2023-01-19T03:02:02.060Z,999.31
2023-01-19T03:03:02.613Z,999.31
2023-01-19T03:04:01.985Z,999.28
2023-01-19T03:05:03.429Z,999.30
2023-01-19T03:06:01.958Z,999.30
2023-01-19T03:07:01.949Z,999.33
2023-01-19T03:08:01.938Z,999.29
2023-01-19T03:09:01.924Z,999.34
2023-01-19T03:10:01.912Z,999.29
2023-01-19T03:11:01.909Z,999.28
2023-01-19T03:12:01.887Z,999.28
2023-01-19T03:13:02.328Z,999.26
2023-01-19T03:14:02.075Z,999.25
2023-01-19T03:15:01.882Z,999.21
2023-01-19T03:16:01.863Z,999.22
2023-01-19T03:17:01.834Z,999.25
2023-01-19T03:18:01.830Z,999.26
2023-01-19T03:19:01.808Z,999.24
2023-01-19T03:20:01.834Z,999.27
2023-01-19T03:21:01.790Z,999.23
2023-01-19T03:22:01.775Z,999.20
2023-01-19T03:23:02.373Z,999.25
2023-01-19T03:24:01.753Z,999.25
2023-01-19T03:25:01.752Z,999.26
2023-01-19T03:26:01.749Z,999.28
2023-01-19T03:27:01.721Z,999.29
2023-01-19T03:28:01.709Z,999.30
2023-01-19T03:29:01.703Z,999.32
2023-01-19T03:30:01.688Z,999.33
2023-01-19T03:31:01.756Z,999.32
2023-01-19T03:32:01.705Z,999.33
2023-01-19T03:33:02.068Z,999.33
2023-01-19T03:34:01.643Z,999.36
2023-01-19T03:35:01.624Z,999.35
2023-01-19T03:36:01.618Z,999.36
2023-01-19T03:37:01.606Z,999.40
2023-01-19T03:38:01.600Z,999.41
2023-01-19T03:39:01.603Z,999.37
2023-01-19T03:40:01.575Z,999.35
2023-01-19T03:41:01.570Z,999.36
2023-01-19T03:42:01.548Z,999.35
2023-01-19T03:43:02.089Z,999.40
2023-01-19T03:44:01.528Z,999.34
2023-01-19T03:45:01.515Z,999.42
2023-01-19T03:46:01.561Z,999.33
2023-01-19T03:47:01.509Z,999.34
2023-01-19T03:48:01.493Z,999.35
2023-01-19T03:49:01.476Z,999.38
2023-01-19T03:50:01.528Z,999.47
2023-01-19T03:51:01.443Z,999.37
2023-01-19T03:52:01.434Z,999.39
2023-01-19T03:53:01.856Z,999.43
2023-01-19T03:54:01.416Z,999.42
2023-01-19T03:55:01.416Z,999.38
2023-01-19T03:56:01.393Z,999.38
2023-01-19T03:57:01.377Z,999.43
2023-01-19T03:58:01.363Z,999.42
2023-01-19T03:59:01.357Z,999.46
2023-01-19T04:00:01.344Z,999.46
2023-01-19T04:01:01.402Z,999.50
2023-01-19T04:02:01.438Z,999.50
2023-01-19T04:03:01.933Z,999.50
2023-01-19T04:04:01.292Z,999.62
2023-01-19T04:05:01.286Z,999.61
2023-01-19T04:06:01.274Z,999.59
2023-01-19T04:07:01.264Z,999.59
2023-01-19T04:08:01.270Z,999.60
2023-01-19T04:09:01.239Z,999.61
2023-01-19T04:10:01.225Z,999.71
2023-01-19T04:11:01.215Z,999.61
2023-01-19T04:12:01.203Z,999.57
2023-01-19T04:13:01.738Z,999.60
2023-01-19T04:14:01.211Z,999.56
2023-01-19T04:15:01.177Z,999.56
2023-01-19T04:16:01.189Z,999.52
2023-01-19T04:17:01.152Z,999.58
2023-01-19T04:18:01.138Z,999.72
2023-01-19T04:19:01.193Z,999.51
2023-01-19T04:20:01.126Z,999.55
2023-01-19T04:21:01.104Z,999.57
2023-01-19T04:22:01.095Z,999.49
2023-01-19T04:23:01.649Z,999.56
2023-01-19T04:24:01.089Z,999.53
2023-01-19T04:25:01.069Z,999.60
2023-01-19T04:26:01.049Z,999.63
2023-01-19T04:27:01.043Z,999.61
2023-01-19T04:28:01.034Z,999.58
2023-01-19T04:29:01.018Z,999.58
2023-01-19T04:30:00.999Z,999.60
2023-01-19T04:31:01.030Z,999.60
2023-01-19T04:32:01.007Z,999.64
2023-01-19T04:33:01.400Z,999.62
2023-01-19T04:34:00.952Z,999.60
2023-01-19T04:35:01.020Z,999.62
2023-01-19T04:36:00.939Z,999.66
2023-01-19T04:37:00.934Z,999.66
2023-01-19T04:38:00.915Z,999.64
2023-01-19T04:39:00.899Z,999.67
2023-01-19T04:40:00.886Z,999.67
2023-01-19T04:41:00.874Z,999.64
2023-01-19T04:42:00.864Z,999.68
2023-01-19T04:43:01.259Z,999.69
2023-01-19T04:44:00.853Z,999.66
2023-01-19T04:45:00.839Z,999.62
2023-01-19T04:46:00.814Z,999.63
2023-01-19T04:47:00.807Z,999.66
2023-01-19T04:48:00.791Z,999.64
2023-01-19T04:49:00.789Z,999.68
2023-01-19T04:50:00.877Z,999.65
2023-01-19T04:51:00.797Z,999.70
2023-01-19T04:52:00.749Z,999.69
2023-01-19T04:53:01.245Z,999.70
2023-01-19T04:54:00.803Z,999.68
2023-01-19T04:55:00.714Z,999.62
2023-01-19T04:56:00.735Z,999.58
2023-01-19T04:57:00.697Z,999.57
2023-01-19T04:58:00.680Z,999.56
2023-01-19T04:59:00.673Z,999.56
2023-01-19T05:00:00.659Z,999.52
2023-01-19T05:01:00.739Z,999.54
2023-01-19T05:02:00.655Z,999.50
2023-01-19T05:03:01.040Z,999.59
2023-01-19T05:04:00.613Z,999.56
2023-01-19T05:05:00.615Z,999.53
2023-01-19T05:06:00.589Z,999.61
2023-01-19T05:07:00.596Z,999.55
2023-01-19T05:08:00.590Z,999.55
2023-01-19T05:09:00.562Z,999.51
2023-01-19T05:10:00.557Z,999.54
2023-01-19T05:11:00.532Z,999.54
2023-01-19T05:12:00.531Z,999.57
2023-01-19T05:13:00.844Z,999.64
2023-01-19T05:14:00.503Z,999.57
2023-01-19T05:15:00.495Z,999.61
2023-01-19T05:16:00.490Z,999.68
2023-01-19T05:17:00.462Z,999.71
2023-01-19T05:18:00.451Z,999.71
2023-01-19T05:19:00.438Z,999.72
2023-01-19T05:20:00.459Z,999.71
2023-01-19T05:21:00.419Z,999.71
2023-01-19T05:22:00.405Z,999.70
2023-01-19T05:23:00.861Z,999.71
2023-01-19T05:24:00.382Z,999.70
2023-01-19T05:25:00.370Z,999.73
2023-01-19T05:26:00.375Z,999.74
2023-01-19T05:27:00.354Z,999.74
2023-01-19T05:28:00.337Z,999.75
2023-01-19T05:29:00.331Z,999.72
2023-01-19T05:30:00.320Z,999.75
2023-01-19T05:31:00.373Z,999.76
2023-01-19T05:32:00.316Z,999.77
2023-01-19T05:33:00.663Z,999.81
2023-01-19T05:34:00.269Z,999.82
2023-01-19T05:35:00.257Z,999.83
2023-01-19T05:36:00.246Z,999.78
2023-01-19T05:37:00.238Z,999.79
2023-01-19T05:38:00.246Z,999.80
2023-01-19T05:39:00.374Z,999.76
2023-01-19T05:40:00.196Z,999.75
2023-01-19T05:41:00.187Z,999.77
2023-01-19T05:42:00.176Z,999.82
2023-01-19T05:43:00.477Z,999.82
2023-01-19T05:44:00.159Z,999.80
2023-01-19T05:45:00.213Z,999.85
2023-01-19T05:46:00.129Z,999.84
2023-01-19T05:47:00.180Z,999.84
2023-01-19T05:48:00.120Z,999.87
2023-01-19T05:49:00.104Z,999.94
2023-01-19T05:50:00.104Z,999.92
2023-01-19T05:51:00.090Z,999.96
2023-01-19T05:52:00.097Z,999.95
2023-01-19T05:53:00.527Z,1000.01
2023-01-19T05:54:00.038Z,999.97
2023-01-19T05:55:00.046Z,1000.00
2023-01-19T05:56:00.068Z,1000.00
2023-01-19T05:57:00.022Z,999.99
2023-01-19T05:57:59.997Z,999.94
2023-01-19T05:58:59.993Z,999.94
2023-01-19T05:59:59.971Z,999.99
2023-01-19T06:00:59.985Z,999.98
2023-01-19T06:02:00.141Z,999.97
2023-01-19T06:03:00.456Z,999.97
2023-01-19T06:03:59.926Z,999.99
2023-01-19T06:04:59.915Z,999.96
2023-01-19T06:05:59.905Z,999.98
2023-01-19T06:06:59.896Z,999.97
2023-01-19T06:07:59.887Z,1000.01
2023-01-19T06:08:59.874Z,1000.00
2023-01-19T06:09:59.862Z,999.99
2023-01-19T06:10:59.876Z,1000.00
2023-01-19T06:11:59.837Z,999.99
2023-01-19T06:13:00.280Z,999.99
2023-01-19T06:13:59.827Z,999.98
2023-01-19T06:14:59.806Z,1000.03
2023-01-19T06:15:59.839Z,1000.03
2023-01-19T06:16:59.780Z,1000.04
2023-01-19T06:17:59.766Z,1000.02
2023-01-19T06:18:59.757Z,1000.04
2023-01-19T06:19:59.749Z,1000.09
2023-01-19T06:20:59.747Z,1000.03
2023-01-19T06:21:59.726Z,1000.12
2023-01-19T06:23:00.194Z,1000.08
2023-01-19T06:23:59.699Z,1000.09
2023-01-19T06:24:59.687Z,1000.11
2023-01-19T06:25:59.693Z,1000.11
2023-01-19T06:26:59.685Z,1000.12
2023-01-19T06:27:59.652Z,1000.05
2023-01-19T06:28:59.640Z,1000.05
2023-01-19T06:29:59.647Z,1000.10
2023-01-19T06:30:59.717Z,1000.10
2023-01-19T06:31:59.652Z,1000.11
2023-01-19T06:32:59.982Z,1000.02
2023-01-19T06:33:59.586Z,1000.04
2023-01-19T06:34:59.571Z,1000.01
2023-01-19T06:35:59.568Z,1000.01
2023-01-19T06:36:59.549Z,1000.12
2023-01-19T06:37:59.558Z,1000.06
2023-01-19T06:38:59.527Z,1000.09
2023-01-19T06:39:59.517Z,1000.10
2023-01-19T06:40:59.525Z,1000.10
2023-01-19T06:41:59.491Z,1000.10
2023-01-19T06:42:59.919Z,1000.13
2023-01-19T06:43:59.495Z,1000.14
2023-01-19T06:44:59.460Z,1000.15
2023-01-19T06:45:59.509Z,1000.17
2023-01-19T06:47:15.383Z,1000.18
2023-01-19T06:48:00.435Z,1000.21
2023-01-19T06:48:59.415Z,1000.18
2023-01-19T06:49:59.410Z,1000.19
2023-01-19T06:50:59.927Z,1000.16
2023-01-19T06:51:59.381Z,1000.23
2023-01-19T06:52:59.690Z,1000.12
2023-01-19T06:53:59.354Z,1000.12
2023-01-19T06:54:59.343Z,1000.17
2023-01-19T06:55:59.340Z,1000.23
2023-01-19T06:56:59.321Z,1000.19
2023-01-19T06:57:59.315Z,1000.21
2023-01-19T06:58:59.320Z,1000.20
2023-01-19T06:59:59.288Z,1000.17
2023-01-19T07:00:59.396Z,1000.28
2023-01-19T07:01:59.460Z,1000.21
2023-01-19T07:02:59.704Z,1000.21
2023-01-19T07:03:59.244Z,1000.34
2023-01-19T07:04:59.240Z,1000.22
2023-01-19T07:05:59.224Z,1000.23
2023-01-19T07:06:59.243Z,1000.21
2023-01-19T07:07:59.202Z,1000.21
2023-01-19T07:08:59.187Z,1000.34
2023-01-19T07:09:59.199Z,1000.21
2023-01-19T07:11:24.948Z,1000.24
2023-01-19T07:12:00.235Z,1000.29
2023-01-19T07:12:59.651Z,1000.26
2023-01-19T07:13:59.143Z,1000.25
2023-01-19T07:14:59.135Z,1000.31
2023-01-19T07:15:59.106Z,1000.34
2023-01-19T07:16:59.158Z,1000.39
2023-01-19T07:17:59.086Z,1000.39
2023-01-19T07:18:59.071Z,1000.42
2023-01-19T07:19:59.064Z,1000.39
2023-01-19T07:20:59.050Z,1000.44
2023-01-19T07:21:59.042Z,1000.41
2023-01-19T07:22:59.254Z,1000.45
2023-01-19T07:23:59.016Z,1000.45
2023-01-19T07:24:59.008Z,1000.42
2023-01-19T07:25:59.000Z,1000.44
2023-01-19T07:26:58.979Z,1000.48
2023-01-19T07:27:58.968Z,1000.37
2023-01-19T07:28:58.955Z,1000.37
2023-01-19T07:29:58.944Z,1000.44
2023-01-19T07:30:59.147Z,1000.53
2023-01-19T07:31:58.948Z,1000.45
2023-01-19T07:32:59.339Z,1000.49
2023-01-19T07:33:58.898Z,1000.53
2023-01-19T07:34:58.889Z,1000.55
2023-01-19T07:35:58.880Z,1000.52
2023-01-19T07:36:58.865Z,1000.54
2023-01-19T07:37:58.876Z,1000.57
2023-01-19T07:38:58.844Z,1000.53
2023-01-19T07:39:58.832Z,1000.53
2023-01-19T07:40:58.819Z,1000.65
2023-01-19T07:41:58.809Z,1000.52
2023-01-19T07:42:59.117Z,1000.49
2023-01-19T07:43:58.807Z,1000.58
2023-01-19T07:44:58.779Z,1000.49
2023-01-19T07:45:58.782Z,1000.55
2023-01-19T07:46:58.772Z,1000.51
2023-01-19T07:47:58.750Z,1000.47
2023-01-19T07:48:58.732Z,1000.50
2023-01-19T07:49:58.724Z,1000.51
2023-01-19T07:50:58.705Z,1000.52
2023-01-19T07:51:58.700Z,1000.50
2023-01-19T07:52:59.076Z,1000.50
2023-01-19T07:53:58.684Z,1000.53
2023-01-19T07:54:58.664Z,1000.60
2023-01-19T07:55:58.655Z,1000.55
2023-01-19T07:56:58.638Z,1000.60
2023-01-19T07:57:58.630Z,1000.60
2023-01-19T07:58:58.614Z,1000.62
2023-01-19T07:59:58.603Z,1000.63
2023-01-19T08:00:58.680Z,1000.62
2023-01-19T08:01:58.690Z,1000.66
2023-01-19T08:02:58.844Z,1000.74
2023-01-19T08:03:58.560Z,1000.62
2023-01-19T08:04:58.551Z,1000.63
2023-01-19T08:05:58.540Z,1000.64
2023-01-19T08:06:58.526Z,1000.64
2023-01-19T08:07:58.571Z,1000.72
2023-01-19T08:08:58.500Z,1000.84
2023-01-19T08:09:58.489Z,1000.69
2023-01-19T08:10:58.478Z,1000.73
2023-01-19T08:11:58.467Z,1000.77
2023-01-19T08:12:58.925Z,1000.85
2023-01-19T08:13:58.454Z,1000.79
2023-01-19T08:14:58.433Z,1000.82
2023-01-19T08:15:58.495Z,1000.90
2023-01-19T08:16:58.409Z,1000.76
2023-01-19T08:17:58.400Z,1000.75
2023-01-19T08:18:58.414Z,1000.83
2023-01-19T08:19:58.380Z,1000.84
2023-01-19T08:20:58.363Z,1000.91
2023-01-19T08:21:58.363Z,1000.84
2023-01-19T08:22:58.754Z,1000.97
2023-01-19T08:23:58.439Z,1000.90
2023-01-19T08:24:58.326Z,1000.89
2023-01-19T08:25:58.324Z,1000.88
2023-01-19T08:26:58.294Z,1000.91
2023-01-19T08:27:58.286Z,1000.91
2023-01-19T08:28:58.273Z,1000.91
2023-01-19T08:29:58.263Z,1000.89
2023-01-19T08:31:01.486Z,1000.90
2023-01-19T08:31:59.308Z,1000.94
2023-01-19T08:32:58.707Z,1000.91
2023-01-19T08:33:58.213Z,1001.03
2023-01-19T08:34:58.234Z,1000.91
2023-01-19T08:35:58.233Z,1000.89
2023-01-19T08:36:58.196Z,1000.90
2023-01-19T08:37:58.178Z,1000.95
2023-01-19T08:38:58.164Z,1001.00
2023-01-19T08:39:58.156Z,1000.94
2023-01-19T08:40:58.135Z,1000.91
2023-01-19T08:41:58.161Z,1000.89
2023-01-19T08:42:58.349Z,1000.93
2023-01-19T08:43:58.118Z,1001.00
2023-01-19T08:44:58.739Z,1000.92
2023-01-19T08:45:58.118Z,1000.95
2023-01-19T08:46:58.069Z,1000.88
2023-01-19T08:47:58.056Z,1000.96
2023-01-19T08:48:58.043Z,1000.98
2023-01-19T08:49:58.046Z,1000.96
2023-01-19T08:50:58.053Z,1000.99
2023-01-19T08:51:58.013Z,1001.01
2023-01-19T08:52:58.316Z,1000.96
2023-01-19T08:53:57.987Z,1000.94
2023-01-19T08:54:57.978Z,1000.92
2023-01-19T08:55:57.972Z,1000.98
2023-01-19T08:56:57.958Z,1000.95
2023-01-19T08:57:58.258Z,1000.96
2023-01-19T08:59:08.774Z,1000.96
2023-01-19T08:59:58.921Z,1000.99
2023-01-19T09:00:57.927Z,1001.02
2023-01-19T09:01:58.082Z,1001.12
2023-01-19T09:02:57.908Z,1001.09
2023-01-19T09:03:57.877Z,1001.08
2023-01-19T09:04:57.865Z,1001.08
2023-01-19T09:05:57.857Z,1001.15
2023-01-19T09:06:57.858Z,1001.08
2023-01-19T09:07:57.875Z,1001.08
2023-01-19T09:08:57.832Z,1001.10
2023-01-19T09:09:57.805Z,1001.08
2023-01-19T09:10:57.795Z,1001.09
2023-01-19T09:11:57.781Z,1001.09
2023-01-19T09:12:57.772Z,1001.22
2023-01-19T09:13:57.779Z,1001.13
2023-01-19T09:14:57.755Z,1001.12
2023-01-19T09:15:57.760Z,1001.15
2023-01-19T09:16:57.726Z,1001.20
2023-01-19T09:17:57.721Z,1001.22
2023-01-19T09:18:57.707Z,1001.12
2023-01-19T09:19:57.705Z,1001.12
2023-01-19T09:20:57.681Z,1001.09
2023-01-19T09:21:57.669Z,1001.16
2023-01-19T09:22:57.681Z,1001.18
2023-01-19T09:23:57.675Z,1001.14
2023-01-19T09:24:57.633Z,1001.09
2023-01-19T09:25:57.649Z,1001.12
2023-01-19T09:26:57.627Z,1001.11
2023-01-19T09:27:57.632Z,1001.21
2023-01-19T09:28:57.587Z,1001.15
2023-01-19T09:29:57.605Z,1001.13
2023-01-19T09:30:57.642Z,1001.13
2023-01-19T09:31:57.643Z,1001.16
2023-01-19T09:32:59.383Z,1001.22
2023-01-19T09:33:57.530Z,1001.14
2023-01-19T09:34:57.521Z,1001.15
2023-01-19T09:35:57.506Z,1001.09
2023-01-19T09:36:57.500Z,1001.12
2023-01-19T09:37:57.500Z,1001.13
2023-01-19T09:38:57.495Z,1001.20
2023-01-19T09:39:57.504Z,1001.24
2023-01-19T09:40:57.451Z,1001.16
2023-01-19T09:41:57.441Z,1001.15
2023-01-19T09:42:57.437Z,1001.24
2023-01-19T09:43:57.437Z,1001.11
2023-01-19T09:44:57.405Z,1001.21
2023-01-19T09:45:57.401Z,1001.19
2023-01-19T09:46:57.399Z,1001.19
2023-01-19T09:47:57.405Z,1001.34
2023-01-19T09:48:57.362Z,1001.18
2023-01-19T09:49:57.354Z,1001.13
2023-01-19T09:50:57.337Z,1001.26
2023-01-19T09:51:57.324Z,1001.11
2023-01-19T09:52:57.318Z,1001.11
2023-01-19T09:53:57.394Z,1001.10
2023-01-19T09:54:57.318Z,1001.20
2023-01-19T09:55:57.287Z,1001.10
2023-01-19T09:56:57.272Z,1001.10
2023-01-19T09:57:57.262Z,1001.11
2023-01-19T09:58:57.247Z,1001.13
2023-01-19T09:59:57.235Z,1001.16
2023-01-19T10:00:57.349Z,1001.16
2023-01-19T10:01:57.250Z,1001.13
2023-01-19T10:02:57.220Z,1001.14
2023-01-19T10:03:57.189Z,1001.11
2023-01-19T10:04:57.182Z,1001.16
2023-01-19T10:05:57.167Z,1001.11
2023-01-19T10:06:57.171Z,1001.10
2023-01-19T10:07:57.158Z,1001.11
2023-01-19T10:08:57.133Z,1001.10
2023-01-19T10:09:57.127Z,1001.09
2023-01-19T10:10:57.136Z,1001.09
2023-01-19T10:11:57.097Z,1001.06
2023-01-19T10:12:57.086Z,1001.05
2023-01-19T10:13:57.099Z,1001.01
2023-01-19T10:14:57.062Z,1001.07
2023-01-19T10:15:57.158Z,1001.02
2023-01-19T10:16:57.042Z,1000.97
2023-01-19T10:17:57.035Z,1001.02
2023-01-19T10:18:57.017Z,1001.02
2023-01-19T10:19:57.049Z,1001.00
2023-01-19T10:20:57.004Z,1001.01
2023-01-19T10:21:57.015Z,1001.09
2023-01-19T10:22:56.999Z,1000.96
2023-01-19T10:23:56.966Z,1001.04
2023-01-19T10:24:56.972Z,1000.95
2023-01-19T10:25:57.055Z,1001.03
2023-01-19T10:26:57.015Z,1000.99
2023-01-19T10:27:56.917Z,1000.99
2023-01-19T10:28:56.938Z,1000.96
2023-01-19T10:29:56.922Z,1000.97
2023-01-19T10:30:56.937Z,1000.99
2023-01-19T10:31:56.906Z,1001.05
2023-01-19T10:32:56.880Z,1000.93
2023-01-19T10:33:56.854Z,1000.90
2023-01-19T10:34:56.846Z,1000.93
2023-01-19T10:35:56.832Z,1001.03
2023-01-19T10:36:56.816Z,1000.94
2023-01-19T10:37:56.810Z,1000.97
2023-01-19T10:38:56.798Z,1000.93
2023-01-19T10:39:56.824Z,1000.91
2023-01-19T10:40:56.807Z,1000.91
2023-01-19T10:41:56.764Z,1000.84
2023-01-19T10:42:56.773Z,1000.89
2023-01-19T10:43:56.817Z,1000.97
2023-01-19T10:44:56.724Z,1000.83
2023-01-19T10:45:56.781Z,1000.83
2023-01-19T10:46:56.748Z,1000.83
2023-01-19T10:47:56.745Z,1000.91
2023-01-19T10:48:56.720Z,1000.88
2023-01-19T10:49:56.675Z,1001.00
2023-01-19T10:50:56.708Z,1000.87
2023-01-19T10:51:56.701Z,1000.88
2023-01-19T10:52:56.634Z,1000.84
2023-01-19T10:53:56.627Z,1000.82
2023-01-19T10:54:56.620Z,1000.83
2023-01-19T10:55:56.615Z,1000.84
2023-01-19T10:56:56.636Z,1000.81
2023-01-19T10:57:56.573Z,1000.80
2023-01-19T10:58:56.623Z,1000.93
2023-01-19T10:59:56.554Z,1000.85
2023-01-19T11:00:56.704Z,1000.86
2023-01-19T11:01:56.707Z,1000.81
2023-01-19T11:02:56.647Z,1000.88
2023-01-19T11:03:56.509Z,1000.80
2023-01-19T11:04:56.527Z,1000.79
2023-01-19T11:05:56.481Z,1000.85
2023-01-19T11:06:56.470Z,1000.94
2023-01-19T11:07:57.465Z,1000.94
2023-01-19T11:08:56.450Z,1000.92
2023-01-19T11:09:56.437Z,1000.86
2023-01-19T11:10:56.465Z,1000.79
2023-01-19T11:11:56.419Z,1000.81
2023-01-19T11:12:56.412Z,1000.90
2023-01-19T11:13:56.395Z,1000.80
2023-01-19T11:14:56.410Z,1000.78
2023-01-19T11:15:56.372Z,1000.78
2023-01-19T11:16:56.411Z,1000.81
2023-01-19T11:17:56.346Z,1000.85
2023-01-19T11:18:56.335Z,1000.84
2023-01-19T11:19:56.345Z,1000.78
2023-01-19T11:20:56.321Z,1000.74
2023-01-19T11:21:56.306Z,1000.74
2023-01-19T11:22:56.292Z,1000.71
2023-01-19T11:23:56.319Z,1000.73
2023-01-19T11:24:56.266Z,1000.70
2023-01-19T11:25:56.262Z,1000.74
2023-01-19T11:26:56.245Z,1000.71
2023-01-19T11:27:56.233Z,1000.72
2023-01-19T11:28:56.224Z,1000.73
2023-01-19T11:29:56.213Z,1000.70
2023-01-19T11:30:56.279Z,1000.64
2023-01-19T11:31:56.228Z,1000.65
2023-01-19T11:32:56.179Z,1000.71
2023-01-19T11:33:56.162Z,1000.62
2023-01-19T11:34:56.150Z,1000.61
2023-01-19T11:35:56.140Z,1000.58
2023-01-19T11:36:56.128Z,1000.58
2023-01-19T11:37:56.125Z,1000.61
2023-01-19T11:38:56.109Z,1000.59
2023-01-19T11:39:56.101Z,1000.53
2023-01-19T11:40:56.089Z,1000.49
2023-01-19T11:41:56.073Z,1000.50
2023-01-19T11:42:56.062Z,1000.57
2023-01-19T11:43:56.060Z,1000.47
2023-01-19T11:44:56.038Z,1000.48
2023-01-19T11:45:56.060Z,1000.51
2023-01-19T11:46:56.092Z,1000.52
2023-01-19T11:47:56.004Z,1000.49
2023-01-19T11:48:55.995Z,1000.51
2023-01-19T11:49:55.987Z,1000.54
2023-01-19T11:50:55.972Z,1000.55
2023-01-19T11:51:55.958Z,1000.58
2023-01-19T11:52:55.947Z,1000.57
2023-01-19T11:53:55.935Z,1000.63
2023-01-19T11:54:55.935Z,1000.74
2023-01-19T11:55:55.918Z,1000.61
2023-01-19T11:56:55.903Z,1000.66
2023-01-19T11:57:55.891Z,1000.70
2023-01-19T11:58:55.879Z,1000.60
2023-01-19T11:59:55.888Z,1000.62
2023-01-19T12:00:55.879Z,1000.66
2023-01-19T12:01:55.861Z,1000.63
2023-01-19T12:02:55.893Z,1000.56
2023-01-19T12:03:55.823Z,1000.55
2023-01-19T12:04:55.812Z,1000.54
2023-01-19T12:05:55.800Z,1000.59
2023-01-19T12:06:55.791Z,1000.60
2023-01-19T12:07:55.788Z,1000.57
2023-01-19T12:08:55.768Z,1000.51
2023-01-19T12:09:55.756Z,1000.52
2023-01-19T12:10:55.742Z,1000.52
2023-01-19T12:11:55.761Z,1000.63
2023-01-19T12:12:55.725Z,1000.56
2023-01-19T12:13:55.721Z,1000.47
2023-01-19T12:14:55.700Z,1000.43
2023-01-19T12:15:55.694Z,1000.41